Time;durP1;ratioP1;P1;durP2;ratioP2;P2;SDS_P1;SDS_P2;PMS_P1;PMS_P2;Temp;Humidity;BMP_temperature;BMP_pressure;BME280_temperature;BME280_humidity;BME280_pressure;Samples;Min_cycle;Max_cycle;Signal;HPM_P1;HPM_P2
2022/06/30 00:01:55;;;;;;;12.07;4.03;;;22.80;73.90;;;;;;4684975;30;20041;-83
2022/06/30 00:04:21;;;;;;;9.27;4.00;;;22.80;73.70;;;;;;4669320;30;20041;-83
2022/06/30 00:06:47;;;;;;;10.80;3.70;;;22.70;74.30;;;;;;4684598;30;20537;-84
2022/06/30 00:09:13;;;;;;;6.53;3.17;;;22.60;74.60;;;;;;4668833;30;20041;-84
2022/06/30 00:11:40;;;;;;;10.65;3.90;;;22.60;74.80;;;;;;4684673;30;20068;-82
2022/06/30 00:14:06;;;;;;;9.20;4.03;;;22.40;74.90;;;;;;4669050;30;20591;-83
2022/06/30 00:16:32;;;;;;;21.30;4.72;;;22.40;75.70;;;;;;4668753;30;20258;-86
2022/06/30 00:18:57;;;;;;;10.43;3.78;;;22.00;75.20;;;;;;4684559;30;20319;-83
2022/06/30 00:21:23;;;;;;;6.80;3.38;;;22.40;76.10;;;;;;4668881;30;20041;-83
2022/06/30 00:23:49;;;;;;;12.20;4.38;;;22.40;75.60;;;;;;4668811;30;20041;-84
2022/06/30 00:26:15;;;;;;;10.63;4.03;;;22.30;76.10;;;;;;4684371;30;20038;-85
2022/06/30 00:28:41;;;;;;;14.02;3.83;;;22.30;76.40;;;;;;4668924;30;20033;-83
2022/06/30 00:31:07;;;;;;;9.52;3.55;;;22.20;76.80;;;;;;4684323;30;20104;-83
2022/06/30 00:33:33;;;;;;;8.80;3.40;;;22.30;76.70;;;;;;4684174;30;20329;-83
2022/06/30 00:35:59;;;;;;;9.23;3.65;;;22.20;77.30;;;;;;4669449;30;20045;-83
2022/06/30 00:38:24;;;;;;;9.10;4.05;;;22.10;78.20;;;;;;4685971;30;20286;-83
2022/06/30 00:40:50;;;;;;;9.88;3.72;;;22.00;78.60;;;;;;4685160;30;20030;-83
2022/06/30 00:43:16;;;;;;;8.95;3.78;;;21.80;79.70;;;;;;4685197;30;20471;-82
2022/06/30 00:45:43;;;;;;;7.95;3.88;;;21.80;79.90;;;;;;4684529;30;20037;-83
2022/06/30 00:48:10;;;;;;;10.48;3.90;;;21.80;80.10;;;;;;4684879;30;20323;-83
2022/06/30 00:50:36;;;;;;;8.93;3.58;;;21.70;80.60;;;;;;4684750;30;20096;-83
2022/06/30 00:53:06;;;;;;;8.90;3.67;;;21.70;80.90;;;;;;4684618;30;20212;-81
2022/06/30 00:55:33;;;;;;;6.60;2.80;;;21.70;81.30;;;;;;4684627;30;20529;-86
2022/06/30 00:58:04;;;;;;;9.68;4.18;;;21.70;81.20;;;;;;4684787;30;20042;-83
2022/06/30 01:00:34;;;;;;;8.95;4.68;;;21.60;82.10;;;;;;4668673;30;20029;-84
2022/06/30 01:03:01;;;;;;;10.00;3.40;;;21.60;82.30;;;;;;4684958;30;20040;-84
2022/06/30 01:05:27;;;;;;;6.18;3.72;;;21.60;82.30;;;;;;4668968;30;20200;-85
2022/06/30 01:07:54;;;;;;;10.98;3.55;;;21.50;82.70;;;;;;4684090;30;20593;-84
2022/06/30 01:13:05;;;;;;;7.80;3.03;;;21.50;83.50;;;;;;4685059;30;20044;-85
2022/06/30 01:15:31;;;;;;;9.35;4.10;;;21.50;83.40;;;;;;4668859;30;20030;-84
2022/06/30 01:17:57;;;;;;;8.88;3.65;;;21.40;84.20;;;;;;4668670;30;20101;-84
2022/06/30 01:20:33;;;;;;;9.52;4.20;;;21.30;84.30;;;;;;4668689;30;20033;-82
2022/06/30 01:23:01;;;;;;;8.65;4.30;;;21.30;84.70;;;;;;4668371;30;20044;-82
2022/06/30 01:25:27;;;;;;;10.98;3.38;;;21.30;85.00;;;;;;4684412;30;20041;-82
2022/06/30 01:27:54;;;;;;;8.93;4.38;;;21.30;85.00;;;;;;4668595;30;20061;-83
2022/06/30 01:30:20;;;;;;;9.48;3.83;;;21.30;85.80;;;;;;4668569;30;20034;-83
2022/06/30 01:32:46;;;;;;;13.10;4.45;;;21.20;85.80;;;;;;4684238;30;20038;-83
2022/06/30 01:35:12;;;;;;;8.63;4.28;;;21.10;86.10;;;;;;4684287;30;20422;-82
2022/06/30 01:38:04;;;;;;;11.15;4.55;;;21.10;86.80;;;;;;4684290;30;20302;-83
2022/06/30 01:40:33;;;;;;;12.85;3.58;;;21.10;86.10;;;;;;4681798;30;20111;-83
2022/06/30 01:42:59;;;;;;;11.10;4.18;;;21.10;87.00;;;;;;4668494;30;20025;-83
2022/06/30 01:45:26;;;;;;;11.40;4.45;;;21.10;87.20;;;;;;4668789;30;20111;-85
2022/06/30 01:47:52;;;;;;;13.43;4.93;;;21.10;87.40;;;;;;4668416;30;20446;-84
2022/06/30 01:50:22;;;;;;;9.65;4.15;;;21.10;87.70;;;;;;4668562;30;20102;-84
2022/06/30 01:52:48;;;;;;;9.32;5.25;;;21.00;88.30;;;;;;4668404;30;20394;-84
2022/06/30 01:55:14;;;;;;;11.55;4.15;;;20.90;88.60;;;;;;4684443;30;20124;-82
2022/06/30 01:57:40;;;;;;;11.98;4.30;;;20.90;88.70;;;;;;4684319;30;20095;-83
2022/06/30 02:00:10;;;;;;;7.10;4.22;;;20.90;88.90;;;;;;4668720;30;20048;-84
2022/06/30 02:02:36;;;;;;;8.20;3.88;;;20.90;89.20;;;;;;4668440;30;20128;-84
2022/06/30 02:05:03;;;;;;;12.27;4.85;;;20.80;89.70;;;;;;4668488;30;20049;-82
2022/06/30 02:07:28;;;;;;;8.25;3.65;;;20.80;90.40;;;;;;4683828;30;20060;-83
2022/06/30 02:09:54;;;;;;;8.30;3.28;;;20.70;90.50;;;;;;4683964;30;20026;-82
2022/06/30 02:15:33;;;;;;;12.73;4.03;;;20.70;90.70;;;;;;4687846;30;20255;-85
2022/06/30 02:18:08;;;;;;;12.45;4.57;;;20.60;91.10;;;;;;4686804;30;20219;-86
2022/06/30 02:20:37;;;;;;;12.35;4.10;;;20.30;91.50;;;;;;4687057;30;20047;-86
2022/06/30 02:23:04;;;;;;;9.35;3.85;;;20.40;91.70;;;;;;4671160;30;20442;-85
2022/06/30 02:25:31;;;;;;;10.45;4.22;;;20.30;92.00;;;;;;4687039;30;20269;-85
2022/06/30 02:27:58;;;;;;;12.35;4.30;;;20.20;92.30;;;;;;4671243;30;20110;-85
2022/06/30 02:30:24;;;;;;;12.95;4.57;;;;;;;;;;4686941;30;20033;-83
2022/06/30 02:32:51;;;;;;;7.05;3.33;;;20.20;92.10;;;;;;4671754;30;20045;-85
2022/06/30 02:35:23;;;;;;;7.18;3.95;;;20.30;92.50;;;;;;4671536;30;20230;-86
2022/06/30 02:37:49;;;;;;;10.05;3.97;;;20.30;92.30;;;;;;4686924;30;20038;-85
2022/06/30 02:40:15;;;;;;;8.93;3.90;;;20.30;92.30;;;;;;4687046;30;20046;-86
2022/06/30 02:42:42;;;;;;;11.73;3.97;;;19.60;92.40;;;;;;4686984;30;20038;-84
2022/06/30 02:45:09;;;;;;;10.75;4.55;;;19.20;92.20;;;;;;4670911;30;20685;-85
2022/06/30 02:47:39;;;;;;;11.38;4.00;;;20.30;92.90;;;;;;4670756;30;20171;-85
2022/06/30 02:50:07;;;;;;;9.65;4.50;;;20.20;93.00;;;;;;4674956;25;20061;-84
2022/06/30 02:52:35;;;;;;;7.85;3.72;;;20.10;93.70;;;;;;4669629;30;20464;-85
2022/06/30 02:55:02;;;;;;;10.35;3.67;;;20.00;93.50;;;;;;4653645;30;20038;-85
2022/06/30 02:57:28;;;;;;;9.23;4.05;;;20.00;93.80;;;;;;4669304;30;20253;-84
2022/06/30 02:59:55;;;;;;;12.85;4.95;;;19.90;94.00;;;;;;4669095;30;20231;-83
2022/06/30 03:02:21;;;;;;;9.05;4.60;;;20.10;94.10;;;;;;4669436;30;20022;-84
2022/06/30 03:04:47;;;;;;;16.10;4.47;;;19.90;94.00;;;;;;4669276;30;20111;-84
2022/06/30 03:07:13;;;;;;;11.48;4.50;;;19.90;94.20;;;;;;4653260;30;20066;-84
2022/06/30 03:09:39;;;;;;;7.78;4.05;;;19.80;94.30;;;;;;4653288;30;20125;-86
2022/06/30 03:12:11;;;;;;;11.57;4.35;;;19.80;94.50;;;;;;4669086;30;20811;-85
2022/06/30 03:14:40;;;;;;;6.13;3.50;;;19.70;94.90;;;;;;4653236;30;20030;-85
2022/06/30 03:17:06;;;;;;;7.97;3.60;;;19.70;94.50;;;;;;4668673;30;20477;-86
2022/06/30 03:19:32;;;;;;;9.40;4.88;;;19.80;94.60;;;;;;4653476;30;20065;-85
2022/06/30 03:21:57;;;;;;;9.02;3.80;;;19.80;94.60;;;;;;4653242;30;20042;-83
2022/06/30 03:24:23;;;;;;;9.07;3.97;;;19.70;94.60;;;;;;4668004;30;20126;-85
2022/06/30 03:26:49;;;;;;;15.80;4.68;;;19.70;94.70;;;;;;4668576;30;20491;-84
2022/06/30 03:29:15;;;;;;;10.15;4.28;;;19.70;94.70;;;;;;4653112;30;20156;-85
2022/06/30 03:31:41;;;;;;;11.05;4.25;;;19.70;94.90;;;;;;4653025;30;20030;-87
2022/06/30 03:34:06;;;;;;;8.48;3.88;;;19.70;94.70;;;;;;4654461;30;20519;-82
2022/06/30 03:36:33;;;;;;;12.30;5.07;;;19.70;94.80;;;;;;4671164;30;20052;-82
2022/06/30 03:38:59;;;;;;;8.00;3.35;;;19.80;94.60;;;;;;4655759;30;20128;-83
2022/06/30 03:41:25;;;;;;;8.88;4.13;;;19.70;94.80;;;;;;4670719;30;20034;-83
2022/06/30 03:43:51;;;;;;;13.00;4.05;;;19.80;94.90;;;;;;4669023;30;20362;-83
2022/06/30 03:46:17;;;;;;;8.95;4.68;;;19.70;95.00;;;;;;4667090;30;20412;-84
2022/06/30 03:48:42;;;;;;;8.88;4.00;;;19.60;95.00;;;;;;4668558;30;20365;-84
2022/06/30 03:51:09;;;;;;;6.97;4.13;;;19.70;95.30;;;;;;4668310;30;20113;-83
2022/06/30 03:53:35;;;;;;;11.20;3.53;;;19.60;95.30;;;;;;4668156;30;20248;-85
2022/06/30 03:56:01;;;;;;;11.18;4.13;;;19.60;95.50;;;;;;4652628;30;20042;-84
2022/06/30 03:58:26;;;;;;;12.43;4.50;;;19.60;95.30;;;;;;4652920;30;20026;-85
2022/06/30 04:00:52;;;;;;;8.75;4.07;;;20.00;95.40;;;;;;4668394;30;20034;-86
2022/06/30 04:03:18;;;;;;;13.05;4.05;;;19.70;95.20;;;;;;4668443;30;20155;-84
2022/06/30 04:05:43;;;;;;;14.63;4.38;;;19.70;95.20;;;;;;4668459;30;20514;-86
2022/06/30 04:08:19;;;;;;;16.45;4.15;;;19.80;95.10;;;;;;4668138;30;20599;-85
2022/06/30 04:10:44;;;;;;;7.85;3.75;;;19.80;95.20;;;;;;4652490;30;20310;-82
2022/06/30 04:13:11;;;;;;;6.93;4.13;;;19.70;95.20;;;;;;4652911;30;20749;-85
2022/06/30 04:15:36;;;;;;;15.02;4.20;;;19.60;95.20;;;;;;4652159;30;20056;-84
2022/06/30 04:18:02;;;;;;;10.65;3.97;;;20.00;95.60;;;;;;4668561;30;20499;-84
2022/06/30 04:20:28;;;;;;;12.27;4.20;;;19.60;95.60;;;;;;4652369;30;20521;-84
2022/06/30 04:22:54;;;;;;;9.80;3.72;;;19.60;95.40;;;;;;4668115;30;20030;-85
2022/06/30 04:25:20;;;;;;;11.98;3.60;;;19.70;95.40;;;;;;4681050;30;20286;-85
2022/06/30 04:27:53;;;;;;;10.75;4.32;;;20.40;95.60;;;;;;4671381;30;20230;-85
2022/06/30 04:33:05;;;;;;;8.70;4.50;;;19.90;95.30;;;;;;4687012;30;20088;-84
2022/06/30 04:35:31;;;;;;;9.07;4.20;;;20.00;95.00;;;;;;4683009;30;20034;-87
2022/06/30 04:38:02;;;;;;;12.45;5.63;;;20.00;95.30;;;;;;4669682;30;20324;-82
2022/06/30 04:43:12;;;;;;;10.30;5.25;;;20.10;95.00;;;;;;4670335;30;20140;-85
2022/06/30 04:45:38;;;;;;;15.85;5.72;;;20.20;94.80;;;;;;4669764;30;20026;-84
2022/06/30 04:48:04;;;;;;;10.90;4.28;;;20.20;94.70;;;;;;4669367;30;20494;-83
2022/06/30 04:50:30;;;;;;;8.55;4.43;;;20.30;94.70;;;;;;4668562;30;20124;-84
2022/06/30 04:52:56;;;;;;;11.85;5.13;;;20.40;94.70;;;;;;4652734;30;20668;-84
2022/06/30 04:55:22;;;;;;;11.43;4.97;;;20.50;94.60;;;;;;4668173;30;20030;-83
2022/06/30 04:57:48;;;;;;;10.48;4.72;;;20.50;94.40;;;;;;4668203;30;20096;-82
2022/06/30 05:00:14;;;;;;;14.05;4.93;;;20.60;94.30;;;;;;4667984;30;20030;-85
2022/06/30 05:02:40;;;;;;;10.45;4.68;;;20.70;94.20;;;;;;4668330;30;20095;-84
2022/06/30 05:05:06;;;;;;;8.93;4.07;;;20.80;94.10;;;;;;4667958;30;20479;-84
2022/06/30 05:07:33;;;;;;;10.07;4.55;;;20.90;93.90;;;;;;4651820;30;20054;-83
2022/06/30 05:09:58;;;;;;;14.13;4.90;;;22.70;94.50;;;;;;4667233;30;20022;-85
2022/06/30 05:12:24;;;;;;;11.40;4.88;;;21.10;93.90;;;;;;4667254;30;20474;-83
2022/06/30 05:14:50;;;;;;;15.30;5.25;;;21.20;93.60;;;;;;4667509;30;20026;-83
2022/06/30 05:17:16;;;;;;;14.98;4.75;;;;;;;;;;4665885;30;20062;-83
2022/06/30 05:19:42;;;;;;;14.88;5.32;;;21.60;92.90;;;;;;4651880;30;20053;-84
2022/06/30 05:22:08;;;;;;;13.70;5.10;;;21.60;93.10;;;;;;4667177;30;20038;-85
2022/06/30 05:27:18;;;;;;;13.60;4.82;;;22.00;92.60;;;;;;4666965;30;20523;-85
2022/06/30 05:29:43;;;;;;;9.93;4.38;;;22.10;92.40;;;;;;4651816;30;20034;-83
2022/06/30 05:32:09;;;;;;;10.55;4.47;;;22.20;92.20;;;;;;4667422;30;20111;-82
2022/06/30 05:34:35;;;;;;;10.80;4.60;;;22.30;92.00;;;;;;4651777;30;20035;-84
2022/06/30 05:37:04;;;;;;;14.60;3.90;;;22.50;91.80;;;;;;4667303;30;20315;-83
2022/06/30 05:39:32;;;;;;;11.82;4.43;;;22.90;91.80;;;;;;4666990;30;20034;-85
2022/06/30 05:42:01;;;;;;;10.07;4.85;;;22.70;91.20;;;;;;4651735;30;20030;-84
2022/06/30 05:44:30;;;;;;;12.50;4.25;;;22.90;90.90;;;;;;4651868;30;20130;-85
2022/06/30 05:46:56;;;;;;;16.27;4.28;;;23.00;90.80;;;;;;4652027;30;20042;-84
2022/06/30 05:49:23;;;;;;;10.75;4.30;;;23.00;90.90;;;;;;4670196;30;20065;-83
2022/06/30 05:51:49;;;;;;;10.75;4.43;;;23.10;90.90;;;;;;4670612;30;20069;-83
2022/06/30 05:54:17;;;;;;;12.00;4.57;;;23.30;90.70;;;;;;4670232;30;20030;-85
2022/06/30 05:56:43;;;;;;;16.88;5.57;;;23.10;90.30;;;;;;4670457;30;20065;-82
2022/06/30 05:59:09;;;;;;;9.63;4.93;;;23.50;90.00;;;;;;4670485;30;20030;-82
2022/06/30 06:01:35;;;;;;;12.23;6.57;;;23.60;89.80;;;;;;4654200;30;20054;-82
2022/06/30 06:04:00;;;;;;;12.35;7.88;;;23.70;89.50;;;;;;4668909;30;20136;-83
2022/06/30 06:06:26;;;;;;;17.70;7.28;;;23.90;90.20;;;;;;4654091;30;20103;-83
2022/06/30 06:08:52;;;;;;;16.48;7.25;;;23.40;88.70;;;;;;4654709;30;20654;-86
2022/06/30 06:11:18;;;;;;;13.80;5.72;;;24.20;88.40;;;;;;4654285;30;20534;-85
2022/06/30 06:13:43;;;;;;;11.18;5.30;;;24.30;88.20;;;;;;4654765;30;20034;-83
2022/06/30 06:16:09;;;;;;;13.00;5.32;;;24.30;88.10;;;;;;4670028;30;20026;-86
2022/06/30 06:18:35;;;;;;;12.05;5.40;;;24.50;86.80;;;;;;4669852;30;20039;-83
2022/06/30 06:21:04;;;;;;;9.70;4.22;;;24.50;86.10;;;;;;4670182;30;20038;-86
2022/06/30 06:23:30;;;;;;;11.85;5.40;;;24.60;86.10;;;;;;4669550;30;20038;-84
2022/06/30 06:25:55;;;;;;;10.80;5.03;;;24.60;86.00;;;;;;4669921;30;20347;-82
2022/06/30 06:31:07;;;;;;;10.73;5.85;;;24.80;85.40;;;;;;4671405;30;20697;-83
2022/06/30 06:33:36;;;;;;;14.68;5.20;;;24.80;85.30;;;;;;4682804;30;20034;-85
2022/06/30 06:36:02;;;;;;;10.55;4.55;;;25.00;83.90;;;;;;4676735;30;20042;-85
2022/06/30 06:38:28;;;;;;;10.18;4.95;;;25.00;84.80;;;;;;4656565;30;20332;-83
2022/06/30 06:40:54;;;;;;;10.55;4.65;;;25.20;84.40;;;;;;4670623;30;20499;-83
2022/06/30 06:43:20;;;;;;;10.63;4.55;;;25.30;83.80;;;;;;4669748;30;20160;-84
2022/06/30 06:45:52;;;;;;;11.05;4.95;;;25.50;83.90;;;;;;4669506;30;20025;-85
2022/06/30 06:48:17;;;;;;;11.70;5.00;;;25.60;83.50;;;;;;4669730;30;20041;-84
2022/06/30 06:50:43;;;;;;;14.30;5.07;;;25.80;82.80;;;;;;4669310;30;20379;-85
2022/06/30 06:53:09;;;;;;;12.77;5.00;;;25.90;81.80;;;;;;4669243;30;20068;-84
2022/06/30 06:55:35;;;;;;;9.80;4.85;;;26.10;81.60;;;;;;4669434;30;20125;-83
2022/06/30 06:58:01;;;;;;;13.73;5.15;;;26.20;81.00;;;;;;4669235;30;20477;-83
2022/06/30 07:00:27;;;;;;;12.07;6.32;;;26.30;80.10;;;;;;4667710;30;20419;-85
2022/06/30 07:02:53;;;;;;;8.50;4.53;;;26.40;79.30;;;;;;4669457;30;20346;-87
2022/06/30 07:05:19;;;;;;;13.23;4.57;;;;;;;;;;4669502;30;20037;-83
2022/06/30 07:07:45;;;;;;;10.70;5.70;;;26.70;77.90;;;;;;4669328;30;20499;-82
2022/06/30 07:10:11;;;;;;;10.32;4.70;;;26.70;79.20;;;;;;4669236;30;20092;-83
2022/06/30 07:12:36;;;;;;;11.98;4.88;;;26.80;77.90;;;;;;4669497;30;20438;-84
2022/06/30 07:15:03;;;;;;;13.23;5.28;;;26.80;78.00;;;;;;4669200;30;20034;-87
2022/06/30 07:17:50;;;;;;;10.77;4.45;;;26.70;77.90;;;;;;4669660;30;20487;-84
2022/06/30 07:20:16;;;;;;;10.77;4.43;;;26.70;78.80;;;;;;4668856;30;20427;-85
2022/06/30 07:22:41;;;;;;;9.18;4.20;;;27.00;77.30;;;;;;4669399;30;20481;-84
2022/06/30 07:25:13;;;;;;;12.48;4.50;;;27.20;75.70;;;;;;4653223;30;20328;-85
2022/06/30 07:27:42;;;;;;;13.73;5.53;;;27.40;75.70;;;;;;4667134;30;20605;-85
2022/06/30 07:30:09;;;;;;;10.55;4.30;;;27.60;74.60;;;;;;4667276;30;20317;-83
2022/06/30 07:32:41;;;;;;;8.07;4.32;;;27.60;75.60;;;;;;4668633;30;20105;-85
2022/06/30 07:35:07;;;;;;;8.43;4.90;;;27.80;75.60;;;;;;4668473;30;20518;-83
2022/06/30 07:37:40;;;;;;;14.48;4.85;;;28.00;73.90;;;;;;4668394;30;20044;-82
2022/06/30 07:40:07;;;;;;;;;;;28.20;73.60;;;;;;4668554;30;20049;-84
2022/06/30 07:42:33;;;;;;;10.02;4.45;;;28.30;73.00;;;;;;4652562;30;19918;-83
2022/06/30 07:44:59;;;;;;;9.05;4.85;;;28.50;72.80;;;;;;4668056;30;20223;-84
2022/06/30 07:47:25;;;;;;;8.43;3.95;;;28.80;72.00;;;;;;4667806;30;20534;-84
2022/06/30 07:49:51;;;;;;;12.68;5.00;;;28.90;71.00;;;;;;4660614;25;20089;-82
2022/06/30 07:52:17;;;;;;;10.52;3.97;;;29.00;71.40;;;;;;4667280;30;20460;-83
2022/06/30 07:54:43;;;;;;;12.30;4.55;;;29.10;69.70;;;;;;4666256;30;20125;-83
2022/06/30 07:57:15;;;;;;;12.70;4.32;;;29.30;69.30;;;;;;4668199;30;20177;-87
2022/06/30 07:59:50;;;;;;;11.02;3.80;;;29.40;68.50;;;;;;4666638;30;20044;-85
2022/06/30 08:02:15;;;;;;;14.38;4.15;;;29.40;68.40;;;;;;4667614;30;20175;-85
2022/06/30 08:04:44;;;;;;;10.70;4.07;;;29.50;67.90;;;;;;4680802;30;20606;-84
2022/06/30 08:07:10;;;;;;;9.40;3.80;;;29.50;67.80;;;;;;4667815;30;20053;-84
2022/06/30 08:09:36;;;;;;;8.73;3.28;;;29.80;67.30;;;;;;4667464;30;20022;-83
2022/06/30 08:12:06;;;;;;;7.60;3.55;;;29.90;64.80;;;;;;4680737;30;20068;-86
2022/06/30 08:14:33;;;;;;;14.05;4.57;;;29.80;64.90;;;;;;4680812;30;20523;-87
2022/06/30 08:16:59;;;;;;;8.98;3.97;;;30.10;65.40;;;;;;4667442;30;20349;-84
2022/06/30 08:19:34;;;;;;;16.65;3.95;;;30.30;64.90;;;;;;4667578;30;20575;-86
2022/06/30 08:22:00;;;;;;;9.00;3.42;;;30.40;62.80;;;;;;4666204;30;20073;-86
2022/06/30 08:24:29;;;;;;;8.65;4.20;;;30.60;61.20;;;;;;4666229;30;20581;-86
2022/06/30 08:27:04;;;;;;;12.45;3.53;;;30.50;61.10;;;;;;4667451;30;20042;-85
2022/06/30 08:29:32;;;;;;;9.75;4.28;;;30.80;57.90;;;;;;4667609;30;20157;-86
2022/06/30 08:32:00;;;;;;;13.15;3.47;;;30.90;58.10;;;;;;4665846;30;20033;-86
2022/06/30 08:34:26;;;;;;;10.88;3.33;;;31.00;57.80;;;;;;4667128;30;20531;-84
2022/06/30 08:36:58;;;;;;;9.73;2.90;;;31.10;57.20;;;;;;4667359;30;20030;-86
2022/06/30 08:42:11;;;;;;;9.10;2.65;;;31.30;50.70;;;;;;4667384;30;20048;-82
2022/06/30 08:44:37;;;;;;;7.50;3.03;;;31.50;51.30;;;;;;4667539;30;20120;-85
2022/06/30 08:47:04;;;;;;;9.77;2.40;;;31.50;50.10;;;;;;4667128;30;20488;-85
2022/06/30 08:49:41;;;;;;;5.20;1.50;;;31.80;49.70;;;;;;4667776;30;20506;-82
2022/06/30 08:52:10;;;;;;;8.50;3.30;;;32.00;46.50;;;;;;4668163;30;20115;-83
2022/06/30 08:54:40;;;;;;;7.90;2.63;;;32.00;49.30;;;;;;4668451;30;20025;-83
2022/06/30 08:57:11;;;;;;;6.93;2.63;;;32.20;50.90;;;;;;4683917;30;20423;-86
2022/06/30 08:59:37;;;;;;;8.83;2.47;;;32.30;50.10;;;;;;4668257;30;20507;-83
2022/06/30 09:02:05;;;;;;;13.60;2.50;;;32.30;48.50;;;;;;4683961;30;20304;-83
2022/06/30 09:04:32;;;;;;;8.90;2.40;;;32.50;48.80;;;;;;4683791;30;20073;-83
2022/06/30 09:06:57;;;;;;;13.50;2.85;;;32.50;47.90;;;;;;4683921;30;20033;-83
2022/06/30 09:09:23;;;;;;;10.43;2.33;;;32.50;48.60;;;;;;4683944;30;20510;-83
2022/06/30 09:11:57;;;;;;;13.15;2.42;;;32.40;46.30;;;;;;4668008;30;20454;-83
2022/06/30 09:14:36;;;;;;;9.77;2.53;;;32.30;48.40;;;;;;4668188;30;20081;-83
2022/06/30 09:17:04;;;;;;;9.85;3.60;;;32.20;48.00;;;;;;4668254;30;20519;-84
2022/06/30 09:19:30;;;;;;;9.05;2.42;;;32.40;48.80;;;;;;4684034;30;20459;-84
2022/06/30 09:22:14;;;;;;;10.50;2.90;;;32.50;48.50;;;;;;4683111;30;20041;-84
2022/06/30 09:24:43;;;;;;;8.82;2.45;;;32.50;47.70;;;;;;4686005;30;20030;-85
2022/06/30 09:27:14;;;;;;;9.05;2.13;;;32.70;49.10;;;;;;4671243;30;20100;-83
2022/06/30 09:29:59;;;;;;;7.25;2.40;;;32.70;46.90;;;;;;4687639;30;20030;-83
2022/06/30 09:32:25;;;;;;;10.45;2.38;;;32.90;47.20;;;;;;4687562;30;20530;-83
2022/06/30 09:35:05;;;;;;;7.68;2.78;;;32.90;47.40;;;;;;4672463;30;20042;-84
2022/06/30 09:37:31;;;;;;;14.98;3.20;;;33.00;47.70;;;;;;4672294;30;20270;-83
2022/06/30 09:40:10;;;;;;;7.20;2.28;;;33.10;47.80;;;;;;4687131;30;20088;-85
2022/06/30 09:42:41;;;;;;;8.82;2.50;;;33.70;47.80;;;;;;4671389;30;20033;-81
2022/06/30 09:45:40;;;;;;;9.07;2.55;;;33.30;47.50;;;;;;4671660;30;20038;-82
2022/06/30 09:48:28;;;;;;;8.60;2.83;;;34.60;48.40;;;;;;4687346;30;20048;-82
2022/06/30 09:51:17;;;;;;;11.95;3.40;;;33.70;48.30;;;;;;4668429;30;20060;-84
2022/06/30 09:54:13;;;;;;;9.10;3.00;;;34.20;47.80;;;;;;4667930;30;20076;-84
2022/06/30 09:56:39;;;;;;;10.68;2.40;;;34.00;46.40;;;;;;4668494;30;20072;-83
2022/06/30 09:59:46;;;;;;;7.82;2.92;;;34.00;45.70;;;;;;4668620;30;20065;-84
2022/06/30 10:04:57;;;;;;;10.25;2.50;;;33.70;46.70;;;;;;4673734;25;20089;-85
2022/06/30 10:07:23;;;;;;;11.50;3.67;;;33.70;47.60;;;;;;4654221;30;20038;-84
2022/06/30 10:09:51;;;;;;;6.63;2.55;;;34.20;48.00;;;;;;4653577;30;20545;-82
2022/06/30 10:12:19;;;;;;;10.82;2.78;;;34.20;47.50;;;;;;4669402;30;20557;-82
2022/06/30 10:14:49;;;;;;;17.85;3.17;;;34.60;46.00;;;;;;4669514;30;20069;-84
2022/06/30 10:17:19;;;;;;;12.35;3.00;;;34.70;46.50;;;;;;4653621;30;20410;-84
2022/06/30 10:19:46;;;;;;;11.60;2.85;;;34.70;46.10;;;;;;4654107;30;20034;-85
2022/06/30 10:22:13;;;;;;;14.32;2.92;;;34.70;45.90;;;;;;4653906;30;20143;-83
2022/06/30 10:24:45;;;;;;;9.35;2.53;;;34.60;45.40;;;;;;4669558;30;20036;-83
2022/06/30 10:27:14;;;;;;;17.30;3.97;;;34.50;45.70;;;;;;4669318;30;20336;-84
2022/06/30 10:29:45;;;;;;;9.45;3.55;;;34.50;45.60;;;;;;4653632;30;20034;-83
2022/06/30 10:32:24;;;;;;;14.38;2.88;;;34.50;45.90;;;;;;4653514;30;20613;-83
2022/06/30 10:35:24;;;;;;;13.70;3.05;;;34.50;45.40;;;;;;4652624;30;20072;-83
2022/06/30 10:37:56;;;;;;;8.43;3.30;;;34.60;46.00;;;;;;4653686;30;20462;-83
2022/06/30 10:40:32;;;;;;;;;;;34.70;45.70;;;;;;4669343;30;20367;-82
2022/06/30 10:43:00;;;;;;;11.90;3.08;;;34.60;45.90;;;;;;4653324;30;19915;-84
2022/06/30 10:45:33;;;;;;;15.55;3.75;;;34.30;46.10;;;;;;4653346;30;20023;-84
2022/06/30 10:48:06;;;;;;;13.90;3.75;;;34.60;46.10;;;;;;4668826;30;20030;-83
2022/06/30 10:50:36;;;;;;;13.30;2.80;;;35.80;46.00;;;;;;4668963;30;20030;-84
2022/06/30 10:53:07;;;;;;;11.10;3.20;;;34.80;46.10;;;;;;4653561;30;20033;-82
2022/06/30 10:55:44;;;;;;;8.98;3.53;;;35.20;45.70;;;;;;4669177;30;20029;-85
2022/06/30 10:58:10;;;;;;;14.98;3.20;;;35.30;46.20;;;;;;4674992;25;20265;-85
2022/06/30 11:01:00;;;;;;;12.35;3.78;;;35.60;45.50;;;;;;4653049;30;20723;-84
2022/06/30 11:03:34;;;;;;;13.60;3.65;;;36.00;45.10;;;;;;4652943;30;20428;-85
2022/06/30 11:06:06;;;;;;;10.93;3.38;;;36.00;45.20;;;;;;4652727;30;20121;-85
2022/06/30 11:11:21;;;;;;;10.18;3.70;;;36.10;45.90;;;;;;4668727;30;20522;-83
2022/06/30 11:14:06;;;;;;;13.05;3.75;;;36.60;44.60;;;;;;4653044;30;20037;-85
2022/06/30 11:16:35;;;;;;;15.23;3.35;;;37.10;44.90;;;;;;4652746;30;20634;-85
2022/06/30 11:19:04;;;;;;;9.43;3.15;;;37.00;43.90;;;;;;4668152;30;20038;-84
2022/06/30 11:21:31;;;;;;;12.52;3.47;;;37.20;43.60;;;;;;4668160;30;20057;-83
2022/06/30 11:24:02;;;;;;;14.30;3.40;;;37.30;43.70;;;;;;4652653;30;20038;-84
2022/06/30 11:29:18;;;;;;;11.32;3.40;;;36.60;43.70;;;;;;4668384;30;20829;-84
2022/06/30 11:31:44;;;;;;;54.15;14.85;;;36.20;44.60;;;;;;4652580;30;20459;-83
2022/06/30 11:34:14;;;;;;;12.30;3.60;;;35.90;44.00;;;;;;4668389;30;20173;-83
2022/06/30 11:36:50;;;;;;;10.52;3.10;;;35.40;45.60;;;;;;4652034;30;20059;-84
2022/06/30 11:39:18;;;;;;;10.57;3.53;;;35.20;47.20;;;;;;4668238;30;20030;-83
2022/06/30 11:44:26;;;;;;;9.70;4.20;;;34.50;46.80;;;;;;4667782;30;20543;-82
2022/06/30 11:47:08;;;;;;;10.73;3.10;;;34.50;47.10;;;;;;4667929;30;20724;-86
2022/06/30 11:49:45;;;;;;;12.48;3.78;;;35.20;47.70;;;;;;4668183;30;20058;-85
2022/06/30 11:52:37;;;;;;;12.13;3.03;;;36.50;47.80;;;;;;4668094;30;20037;-87
2022/06/30 11:55:12;;;;;;;13.05;3.47;;;34.20;43.70;;;;;;4668164;30;20022;-84
2022/06/30 11:57:44;;;;;;;10.98;3.58;;;38.20;43.70;;;;;;4667647;30;20705;-85
2022/06/30 12:00:21;;;;;;;7.57;2.78;;;38.80;43.10;;;;;;4652274;30;20033;-83
2022/06/30 12:02:47;;;;;;;8.18;3.05;;;39.60;42.70;;;;;;4667335;30;20041;-85
2022/06/30 12:05:15;;;;;;;9.75;2.72;;;40.30;42.00;;;;;;4667668;30;20673;-83
2022/06/30 12:07:42;;;;;;;8.18;3.38;;;40.80;41.10;;;;;;4667600;30;20495;-83
2022/06/30 12:10:10;;;;;;;11.98;3.25;;;40.90;41.30;;;;;;4667662;30;20053;-85
2022/06/30 12:12:37;;;;;;;9.95;3.47;;;41.20;40.20;;;;;;4652270;30;20328;-83
2022/06/30 12:15:06;;;;;;;9.52;3.05;;;41.20;40.30;;;;;;4667967;30;20030;-83
2022/06/30 12:17:46;;;;;;;11.48;3.40;;;41.90;40.20;;;;;;4652480;30;20033;-84
2022/06/30 12:20:15;;;;;;;10.55;2.88;;;42.50;39.90;;;;;;4652458;30;20034;-83
2022/06/30 12:22:44;;;;;;;13.38;2.72;;;42.00;39.60;;;;;;4668071;30;20038;-84
2022/06/30 12:25:12;;;;;;;12.88;3.25;;;42.00;39.20;;;;;;4668408;30;20030;-83
2022/06/30 12:27:52;;;;;;;16.20;4.90;;;42.50;39.30;;;;;;4670106;30;20057;-82
2022/06/30 12:30:24;;;;;;;13.07;4.05;;;41.90;38.50;;;;;;4668676;30;20283;-83
2022/06/30 12:32:59;;;;;;;12.40;3.08;;;42.00;38.10;;;;;;4657180;30;20038;-84
2022/06/30 12:35:32;;;;;;;10.82;3.42;;;41.50;37.90;;;;;;4679396;30;20149;-82
2022/06/30 12:38:10;;;;;;;10.60;2.47;;;41.90;38.50;;;;;;4680178;30;20038;-83
2022/06/30 12:40:40;;;;;;;9.75;3.63;;;41.90;38.10;;;;;;4663216;30;20569;-81
2022/06/30 12:43:08;;;;;;;7.28;2.80;;;41.70;38.30;;;;;;4655847;30;20044;-84
2022/06/30 12:45:56;;;;;;;14.05;3.38;;;41.40;39.30;;;;;;4653611;30;20221;-84
2022/06/30 12:48:50;;;;;;;9.70;3.28;;;41.30;38.70;;;;;;4653903;30;20077;-83
2022/06/30 12:51:28;;;;;;;8.45;2.92;;;40.80;39.20;;;;;;4668589;30;20092;-83
2022/06/30 12:54:09;;;;;;;11.55;2.97;;;41.20;39.50;;;;;;4668216;30;20553;-82
2022/06/30 12:56:37;;;;;;;12.45;3.30;;;41.00;39.30;;;;;;4651537;30;20186;-84
2022/06/30 12:59:13;;;;;;;8.60;2.47;;;41.50;39.20;;;;;;4667627;30;20436;-82
2022/06/30 13:01:43;;;;;;;9.18;2.95;;;41.70;38.60;;;;;;4651731;30;20224;-84
2022/06/30 13:04:28;;;;;;;10.55;2.85;;;42.10;38.20;;;;;;4667401;30;20219;-82
2022/06/30 13:06:55;;;;;;;9.48;2.95;;;42.00;38.10;;;;;;4667352;30;20022;-81
2022/06/30 13:09:25;;;;;;;12.27;3.30;;;42.00;38.10;;;;;;4667201;30;20045;-82
2022/06/30 13:11:59;;;;;;;8.07;2.70;;;42.00;37.90;;;;;;4651857;30;20212;-82
2022/06/30 13:14:28;;;;;;;8.68;2.83;;;42.00;37.50;;;;;;4651659;30;20085;-84
2022/06/30 13:16:54;;;;;;;9.50;3.67;;;41.30;37.80;;;;;;4651611;30;20038;-82
2022/06/30 13:19:20;;;;;;;9.43;3.10;;;41.10;38.30;;;;;;4667094;30;20034;-83
2022/06/30 13:21:49;;;;;;;6.75;2.78;;;40.90;38.50;;;;;;4667212;30;20037;-83
2022/06/30 13:24:17;;;;;;;10.52;3.30;;;40.80;38.60;;;;;;4667093;30;20066;-83